createdAt,value
2019-04-11T00:01:33.940Z,54.60
2019-04-11T00:03:53.514Z,54.97
2019-04-11T00:06:23.905Z,56.23
2019-04-11T00:08:54.353Z,49.57
2019-04-11T00:11:28.200Z,52.83
2019-04-11T00:13:59.884Z,50.93
2019-04-11T00:16:31.022Z,54.37
2019-04-11T00:19:01.735Z,57.00
2019-04-11T00:21:32.890Z,50.87
2019-04-11T00:24:04.877Z,53.03
2019-04-11T00:26:36.454Z,55.00
2019-04-11T00:29:06.998Z,51.23
2019-04-11T00:31:37.329Z,50.30
2019-04-11T00:34:10.960Z,52.50
2019-04-11T00:36:41.114Z,53.77
2019-04-11T00:39:13.242Z,48.30
2019-04-11T00:41:44.150Z,52.97
2019-04-11T00:44:14.660Z,51.70
2019-04-11T00:46:44.977Z,49.90
2019-04-11T00:49:15.455Z,50.70
2019-04-11T00:51:47.710Z,49.77
2019-04-11T00:54:18.469Z,51.83
2019-04-11T00:56:50.612Z,51.17
2019-04-11T00:59:22.234Z,49.07
2019-04-11T01:01:53.388Z,51.17
2019-04-11T01:04:23.517Z,51.30
2019-04-11T01:06:54.333Z,50.57
2019-04-11T01:09:24.536Z,49.23
2019-04-11T01:11:54.994Z,47.40
2019-04-11T01:14:25.802Z,46.87
2019-04-11T01:16:56.912Z,49.93
2019-04-11T01:19:28.882Z,46.63
2019-04-11T01:21:59.551Z,50.83
2019-04-11T01:24:29.977Z,44.57
2019-04-11T01:27:01.481Z,47.33
2019-04-11T01:29:31.653Z,46.17
2019-04-11T01:32:06.556Z,48.37
2019-04-11T01:34:37.233Z,47.87
2019-04-11T01:37:09.241Z,45.27
2019-04-11T01:39:59.386Z,47.20
2019-04-11T01:42:31.610Z,43.17
2019-04-11T01:45:03.510Z,48.00
2019-04-11T01:47:59.830Z,45.90
2019-04-11T01:50:32.857Z,47.70
2019-04-11T01:53:04.342Z,47.77
2019-04-11T01:55:34.840Z,44.30
2019-04-11T01:58:05.227Z,47.93
2019-04-11T02:00:54.541Z,44.10
2019-04-11T02:03:35.100Z,42.73
2019-04-11T02:06:07.577Z,45.63
2019-04-11T02:08:40.174Z,45.50
2019-04-11T02:11:10.478Z,45.40
2019-04-11T02:13:41.812Z,45.67
2019-04-11T02:16:12.644Z,48.23
2019-04-11T02:18:43.706Z,45.43
2019-04-11T02:21:15.671Z,45.17
2019-04-11T02:24:04.381Z,44.43
2019-04-11T02:26:36.039Z,46.30
2019-04-11T02:29:06.947Z,44.30
2019-04-11T02:31:36.924Z,43.03
2019-04-11T02:34:08.688Z,42.77
2019-04-11T02:36:40.446Z,47.00
2019-04-11T02:39:16.942Z,43.87
2019-04-11T02:41:44.512Z,47.93
2019-04-11T02:44:30.676Z,42.37
2019-04-11T02:46:54.432Z,45.77
2019-04-11T02:49:21.297Z,45.30
2019-04-11T02:51:51.367Z,44.07
2019-04-11T02:54:24.568Z,39.67
2019-04-11T02:56:57.721Z,41.73
2019-04-11T02:59:29.674Z,43.03
2019-04-11T03:02:00.455Z,42.83
2019-04-11T03:04:31.638Z,45.03
2019-04-11T03:07:03.788Z,41.90
2019-04-11T03:09:35.229Z,39.90
2019-04-11T03:12:07.239Z,44.60
2019-04-11T03:14:54.111Z,43.47
2019-04-11T03:17:17.394Z,43.03
2019-04-11T03:19:54.758Z,42.43
2019-04-11T03:22:14.075Z,39.27
2019-04-11T03:24:44.112Z,39.47
2019-04-11T03:27:15.611Z,41.40
2019-04-11T03:29:45.862Z,41.67
2019-04-11T03:33:14.904Z,43.37
2019-04-11T03:37:47.492Z,42.57
2019-04-11T03:40:15.021Z,41.10
2019-04-11T03:42:41.748Z,43.70
2019-04-11T03:45:20.587Z,39.93
2019-04-11T03:47:40.882Z,40.33
2019-04-11T03:50:08.150Z,42.27
2019-04-11T03:52:36.652Z,43.60
2019-04-11T03:55:08.310Z,43.27
2019-04-11T03:57:39.373Z,42.77
2019-04-11T04:00:12.441Z,41.10
2019-04-11T04:02:41.955Z,45.27
2019-04-11T04:05:13.014Z,42.50
2019-04-11T04:07:44.419Z,42.23
2019-04-11T04:10:15.797Z,43.60
2019-04-11T04:12:47.503Z,44.77
2019-04-11T04:15:53.504Z,42.93
2019-04-11T04:18:21.286Z,42.13
2019-04-11T04:21:10.543Z,43.97
2019-04-11T04:23:45.567Z,42.67
2019-04-11T04:26:16.870Z,46.23
2019-04-11T04:28:48.274Z,45.90
2019-04-11T04:31:18.886Z,47.33
2019-04-11T04:33:51.254Z,45.27
2019-04-11T04:36:22.311Z,42.27
2019-04-11T04:38:52.683Z,44.37
2019-04-11T04:41:35.049Z,40.53
2019-04-11T04:43:57.710Z,46.10
2019-04-11T04:46:42.338Z,46.40
2019-04-11T04:48:59.400Z,45.33
2019-04-11T04:51:29.417Z,44.07
2019-04-11T04:54:00.535Z,42.37
2019-04-11T04:56:32.205Z,46.80
2019-04-11T04:59:04.732Z,44.90
2019-04-11T05:01:35.119Z,44.77
2019-04-11T05:04:05.326Z,45.37
2019-04-11T05:06:36.785Z,45.43
2019-04-11T05:09:08.595Z,44.97
2019-04-11T05:11:38.917Z,50.17
2019-04-11T05:14:10.362Z,48.80
2019-04-11T05:16:41.773Z,47.07
2019-04-11T05:19:12.860Z,40.17
2019-04-11T05:21:43.608Z,50.27
2019-04-11T05:24:14.508Z,50.10
2019-04-11T05:26:44.167Z,45.87
2019-04-11T05:29:15.208Z,47.90
2019-04-11T05:31:44.928Z,46.47
2019-04-11T05:34:14.717Z,44.93
2019-04-11T05:36:44.984Z,40.00
2019-04-11T05:39:16.006Z,43.77
2019-04-11T05:41:47.122Z,43.87
2019-04-11T05:44:17.283Z,41.97
2019-04-11T05:46:54.944Z,42.87
2019-04-11T05:49:36.168Z,42.33
2019-04-11T05:52:06.378Z,43.87
2019-04-11T05:54:49.766Z,43.70
2019-04-11T05:57:23.777Z,40.30
2019-04-11T05:59:53.451Z,44.90
2019-04-11T06:02:37.344Z,45.30
2019-04-11T06:05:37.226Z,42.50
2019-04-11T06:08:09.852Z,45.90
2019-04-11T06:10:48.479Z,46.93
2019-04-11T06:13:37.003Z,42.70
2019-04-11T06:16:06.780Z,43.30
2019-04-11T06:18:54.748Z,38.73
2019-04-11T06:21:40.567Z,45.37
2019-04-11T06:24:48.222Z,43.27
2019-04-11T06:27:43.320Z,42.43
2019-04-11T06:30:35.393Z,40.53
2019-04-11T06:33:27.333Z,40.20
2019-04-11T06:36:30.007Z,43.97
2019-04-11T06:39:16.226Z,40.93
2019-04-11T06:42:01.170Z,41.13
2019-04-11T06:44:52.762Z,40.17
2019-04-11T06:47:41.009Z,42.33
2019-04-11T06:50:19.439Z,36.80
2019-04-11T06:52:50.923Z,36.37
2019-04-11T06:55:42.684Z,41.83
2019-04-11T06:58:21.353Z,38.57
2019-04-11T07:00:57.892Z,35.90
2019-04-11T07:03:32.413Z,40.63
2019-04-11T07:06:07.011Z,37.13
2019-04-11T07:08:49.085Z,35.03
2019-04-11T07:11:20.474Z,37.03
2019-04-11T07:14:10.288Z,32.23
2019-04-11T07:17:04.284Z,37.63
2019-04-11T07:19:48.106Z,37.67
2019-04-11T07:22:36.848Z,38.93
2019-04-11T07:25:24.164Z,38.37
2019-04-11T07:28:03.708Z,36.73
2019-04-11T07:30:50.997Z,38.53
2019-04-11T07:33:49.554Z,34.87
2019-04-11T07:36:36.719Z,34.07
2019-04-11T07:39:33.607Z,36.57
2019-04-11T07:42:21.358Z,35.23
2019-04-11T07:44:59.690Z,37.87
2019-04-11T07:47:46.405Z,34.10
2019-04-11T07:50:18.191Z,32.97
2019-04-11T07:52:53.919Z,37.17
2019-04-11T07:55:25.797Z,34.13
2019-04-11T07:58:13.197Z,36.03
2019-04-11T08:00:59.284Z,32.83
2019-04-11T08:03:47.026Z,35.00
2019-04-11T08:06:34.158Z,33.93
2019-04-11T08:09:28.981Z,36.43
2019-04-11T08:12:03.052Z,35.00
2019-04-11T08:14:51.062Z,36.57
2019-04-11T08:17:30.803Z,36.30
2019-04-11T08:20:13.172Z,35.20
2019-04-11T08:22:49.574Z,37.07
2019-04-11T08:25:37.649Z,36.67
2019-04-11T08:28:12.433Z,42.17
2019-04-11T08:31:01.413Z,35.20
2019-04-11T08:33:35.106Z,36.67
2019-04-11T08:36:24.029Z,34.00
2019-04-11T08:38:53.745Z,37.63
2019-04-11T08:41:49.720Z,34.07
2019-04-11T08:44:32.631Z,36.47
2019-04-11T08:47:07.856Z,35.80
2019-04-11T08:49:42.775Z,33.87
2019-04-11T08:52:46.971Z,36.37
2019-04-11T08:55:24.113Z,33.20
2019-04-11T08:57:58.356Z,34.67
2019-04-11T09:00:42.374Z,35.93
2019-04-11T09:04:02.143Z,34.93
2019-04-11T09:06:29.074Z,34.00
2019-04-11T09:09:16.875Z,37.17
2019-04-11T09:11:49.975Z,38.90
2019-04-11T09:14:41.747Z,33.57
2019-04-11T09:17:14.408Z,36.20
2019-04-11T09:20:07.493Z,37.10
2019-04-11T09:22:59.572Z,36.00
2019-04-11T09:25:50.410Z,35.33
2019-04-11T09:28:29.123Z,32.87
2019-04-11T09:31:30.278Z,33.43
2019-04-11T09:34:24.445Z,37.67
2019-04-11T09:37:16.998Z,34.13
2019-04-11T09:40:12.659Z,32.60
2019-04-11T09:43:04.529Z,35.20
2019-04-11T09:45:52.754Z,36.93
2019-04-11T09:48:31.530Z,34.03
2019-04-11T09:51:21.335Z,36.83
2019-04-11T09:53:59.905Z,35.90
2019-04-11T09:57:00.252Z,34.60
2019-04-11T09:59:36.986Z,32.73
2019-04-11T10:02:29.383Z,36.23
2019-04-11T10:05:02.625Z,34.73
2019-04-11T10:07:54.460Z,34.10
2019-04-11T10:10:49.534Z,35.93
2019-04-11T10:13:39.216Z,33.80
2019-04-11T10:16:29.536Z,34.47
2019-04-11T10:19:31.767Z,34.73
2019-04-11T10:22:13.105Z,38.17
2019-04-11T10:25:05.179Z,38.37
2019-04-11T10:27:55.218Z,35.80
2019-04-11T10:30:44.104Z,33.37
2019-04-11T10:33:28.822Z,36.50
2019-04-11T10:36:18.875Z,37.03
2019-04-11T10:38:53.447Z,36.43
2019-04-11T10:41:32.699Z,37.20
2019-04-11T10:44:02.952Z,34.97
2019-04-11T10:46:49.646Z,36.93
2019-04-11T10:49:30.290Z,35.57
2019-04-11T10:52:12.079Z,38.03
2019-04-11T10:54:42.916Z,38.77
2019-04-11T10:57:38.318Z,36.33
2019-04-11T11:00:16.584Z,36.53
2019-04-11T11:03:04.747Z,37.77
2019-04-11T11:05:38.012Z,36.50
2019-04-11T11:08:39.839Z,34.57
2019-04-11T11:11:24.103Z,35.73
2019-04-11T11:14:28.979Z,36.07
2019-04-11T11:17:17.535Z,35.87
2019-04-11T11:20:16.358Z,35.97
2019-04-11T11:22:57.705Z,35.90
2019-04-11T11:25:48.887Z,37.17
2019-04-11T11:28:21.502Z,33.80
2019-04-11T11:31:11.840Z,36.13
2019-04-11T11:33:44.926Z,36.30
2019-04-11T11:36:36.963Z,36.47
2019-04-11T11:39:17.361Z,35.63
2019-04-11T11:42:06.224Z,37.57
2019-04-11T11:44:44.706Z,34.50
2019-04-11T11:47:36.167Z,36.03
2019-04-11T11:50:10.526Z,35.40
2019-04-11T11:52:57.391Z,35.77
2019-04-11T11:55:31.522Z,34.87
2019-04-11T11:58:21.506Z,35.03
2019-04-11T12:00:53.878Z,36.23
2019-04-11T12:03:46.971Z,38.53
2019-04-11T12:06:22.238Z,37.57
2019-04-11T12:09:09.862Z,38.30
2019-04-11T12:11:42.589Z,39.37
2019-04-11T12:14:29.932Z,33.37
2019-04-11T12:17:12.233Z,35.23
2019-04-11T12:19:54.671Z,35.37
2019-04-11T12:22:22.132Z,37.13
2019-04-11T12:25:17.052Z,31.10
2019-04-11T12:28:25.582Z,35.03
2019-04-11T12:31:03.799Z,36.53
2019-04-11T12:33:55.554Z,35.70
2019-04-11T12:36:30.523Z,38.17
2019-04-11T12:39:19.887Z,36.40
2019-04-11T12:42:08.308Z,33.67
2019-04-11T12:44:46.455Z,35.53
2019-04-11T12:47:43.826Z,33.37
2019-04-11T12:50:31.020Z,34.17
2019-04-11T12:53:10.271Z,37.03
2019-04-11T12:55:59.361Z,35.77
2019-04-11T12:58:55.859Z,35.43
2019-04-11T13:01:45.599Z,35.90
2019-04-11T13:04:37.984Z,36.43
2019-04-11T13:07:33.176Z,37.33
2019-04-11T13:10:11.960Z,33.57
2019-04-11T13:13:09.441Z,34.87
2019-04-11T13:15:42.035Z,32.80
2019-04-11T13:18:29.995Z,31.90
2019-04-11T13:21:16.113Z,33.23
2019-04-11T13:24:11.367Z,32.53
2019-04-11T13:27:11.660Z,38.20
2019-04-11T13:30:00.847Z,33.40
2019-04-11T13:32:43.939Z,31.93
2019-04-11T13:35:20.077Z,31.40
2019-04-11T13:38:04.012Z,34.67
2019-04-11T13:41:01.993Z,32.27
2019-04-11T13:43:54.963Z,35.27
2019-04-11T13:46:43.173Z,33.07
2019-04-11T13:49:41.781Z,34.30
2019-04-11T13:52:30.861Z,36.93
2019-04-11T13:55:31.848Z,36.77
2019-04-11T13:58:26.986Z,34.40
2019-04-11T14:01:02.034Z,35.13
2019-04-11T14:03:57.825Z,35.97
2019-04-11T14:06:38.481Z,33.90
2019-04-11T14:09:40.005Z,35.03
2019-04-11T14:12:14.348Z,37.93
2019-04-11T14:14:53.857Z,34.60
2019-04-11T14:17:41.585Z,37.97
2019-04-11T14:20:41.938Z,39.47
2019-04-11T14:23:33.653Z,38.07
2019-04-11T14:26:23.976Z,38.93
2019-04-11T14:28:58.296Z,40.23
2019-04-11T14:31:50.876Z,37.40
2019-04-11T14:34:41.326Z,35.97
2019-04-11T14:37:38.092Z,35.70
2019-04-11T14:40:21.703Z,40.27
2019-04-11T14:43:20.052Z,35.27
2019-04-11T14:46:18.525Z,39.00
2019-04-11T14:48:50.975Z,39.10
2019-04-11T14:51:40.611Z,35.47
2019-04-11T14:54:17.114Z,36.57
2019-04-11T14:56:54.734Z,39.97
2019-04-11T14:59:45.783Z,38.83
2019-04-11T15:02:46.055Z,36.70
2019-04-11T15:05:34.095Z,36.47
2019-04-11T15:08:10.195Z,38.23
2019-04-11T15:11:02.530Z,35.57
2019-04-11T15:13:33.684Z,39.00
2019-04-11T15:16:22.025Z,37.07
2019-04-11T15:18:56.969Z,36.83
2019-04-11T15:21:46.092Z,35.60
2019-04-11T15:24:17.209Z,37.13
2019-04-11T15:27:06.575Z,38.33
2019-04-11T15:29:39.255Z,36.83
2019-04-11T15:32:46.670Z,41.00
2019-04-11T15:35:17.327Z,37.80
2019-04-11T15:38:05.082Z,37.93
2019-04-11T15:40:38.365Z,43.03
2019-04-11T15:43:30.913Z,38.77
2019-04-11T15:46:04.302Z,38.50
2019-04-11T15:48:54.559Z,39.00
2019-04-11T15:51:43.814Z,36.87
2019-04-11T15:54:34.865Z,37.90
2019-04-11T15:57:12.730Z,38.13
2019-04-11T16:00:14.745Z,40.63
2019-04-11T16:03:03.054Z,39.40
2019-04-11T16:05:50.911Z,37.73
2019-04-11T16:08:43.564Z,38.43
2019-04-11T16:11:42.470Z,43.10
2019-04-11T16:14:46.790Z,39.23
2019-04-11T16:17:36.121Z,39.17
2019-04-11T16:20:19.695Z,37.93
2019-04-11T16:23:08.785Z,41.07
2019-04-11T16:25:41.215Z,37.47
2019-04-11T16:28:30.379Z,35.70
2019-04-11T16:31:00.599Z,38.77
2019-04-11T16:33:47.956Z,35.90
2019-04-11T16:36:37.078Z,34.87
2019-04-11T16:39:50.162Z,40.27
2019-04-11T16:42:36.003Z,38.43
2019-04-11T16:45:26.313Z,35.87
2019-04-11T16:48:06.060Z,34.10
2019-04-11T16:50:36.313Z,38.60
2019-04-11T16:53:10.596Z,35.30
2019-04-11T16:55:41.979Z,33.33
2019-04-11T16:58:15.138Z,35.10
2019-04-11T17:00:43.337Z,38.77
2019-04-11T17:03:13.730Z,35.30
2019-04-11T17:05:55.523Z,35.43
2019-04-11T17:08:34.188Z,35.83
2019-04-11T17:11:09.774Z,36.83
2019-04-11T17:13:39.953Z,36.27
2019-04-11T17:16:15.138Z,35.20
2019-04-11T17:18:46.065Z,35.87
2019-04-11T17:21:16.255Z,35.83
2019-04-11T17:23:48.315Z,34.73
2019-04-11T17:26:18.543Z,36.73
2019-04-11T17:28:49.240Z,35.97
2019-04-11T17:31:19.389Z,37.13
2019-04-11T17:33:49.965Z,34.10
2019-04-11T17:36:20.011Z,37.20
2019-04-11T17:38:50.480Z,38.23
2019-04-11T17:41:20.680Z,41.10
2019-04-11T17:43:51.799Z,38.53
2019-04-11T17:46:22.417Z,38.43
2019-04-11T17:48:54.019Z,37.10
2019-04-11T17:51:24.269Z,36.00
2019-04-11T17:54:03.564Z,34.93
2019-04-11T17:56:33.682Z,42.07
2019-04-11T17:59:03.889Z,38.50
2019-04-11T18:01:38.088Z,38.20
2019-04-11T18:04:08.966Z,38.37
2019-04-11T18:06:40.516Z,38.60
2019-04-11T18:09:12.825Z,38.90
2019-04-11T18:11:42.943Z,38.60
2019-04-11T18:14:13.307Z,42.33
2019-04-11T18:16:43.589Z,38.17
2019-04-11T18:19:13.773Z,39.93
2019-04-11T18:21:44.079Z,39.13
2019-04-11T18:24:14.588Z,41.10
2019-04-11T18:26:45.042Z,38.03
2019-04-11T18:29:16.546Z,38.20
2019-04-11T18:31:49.435Z,41.70
2019-04-11T18:34:20.141Z,41.10
2019-04-11T18:36:50.267Z,40.30
2019-04-11T18:39:20.441Z,40.00
2019-04-11T18:41:51.068Z,41.53
2019-04-11T18:44:21.128Z,39.30
2019-04-11T18:46:50.597Z,42.33
2019-04-11T18:49:21.847Z,42.27
2019-04-11T18:51:53.124Z,42.87
2019-04-11T18:54:23.475Z,41.60
2019-04-11T18:56:53.769Z,41.67
2019-04-11T18:59:23.384Z,37.50
2019-04-11T19:01:52.819Z,41.77
2019-04-11T19:04:31.954Z,45.83
2019-04-11T19:06:54.280Z,41.93
2019-04-11T19:09:24.217Z,40.03
2019-04-11T19:11:53.881Z,41.33
2019-04-11T19:14:28.700Z,43.60
2019-04-11T19:16:58.253Z,41.03
2019-04-11T19:19:27.797Z,40.00
2019-04-11T19:21:57.326Z,41.20
2019-04-11T19:24:35.488Z,41.07
2019-04-11T19:26:58.380Z,42.60
2019-04-11T19:29:29.056Z,39.47
2019-04-11T19:31:58.526Z,43.70
2019-04-11T19:34:28.437Z,41.87
2019-04-11T19:36:58.000Z,42.03
2019-04-11T19:39:29.194Z,43.27
2019-04-11T19:41:58.741Z,43.53
2019-04-11T19:44:29.126Z,42.30
2019-04-11T19:47:00.383Z,45.70
2019-04-11T19:49:30.625Z,43.87
2019-04-11T19:52:01.488Z,42.47
2019-04-11T19:54:32.951Z,42.30
2019-04-11T19:57:06.894Z,43.23
2019-04-11T19:59:36.529Z,42.33
2019-04-11T20:02:07.493Z,41.60
2019-04-11T20:04:36.957Z,42.00
2019-04-11T20:07:06.638Z,41.73
2019-04-11T20:09:36.252Z,45.03
2019-04-11T20:12:06.266Z,43.63
2019-04-11T20:14:35.748Z,42.93
2019-04-11T20:17:09.248Z,42.40
2019-04-11T20:19:40.904Z,42.10
2019-04-11T20:22:10.689Z,42.13
2019-04-11T20:24:40.481Z,45.60
2019-04-11T20:27:09.969Z,43.83
2019-04-11T20:29:40.112Z,44.07
2019-04-11T20:32:09.656Z,40.93
2019-04-11T20:34:39.622Z,43.10
2019-04-11T20:37:12.660Z,42.33
2019-04-11T20:39:46.281Z,41.83
2019-04-11T20:42:13.048Z,43.07
2019-04-11T20:44:42.496Z,44.50
2019-04-11T20:47:12.551Z,42.20
2019-04-11T20:49:49.223Z,45.73
2019-04-11T20:52:19.179Z,43.77
2019-04-11T20:54:48.655Z,44.63
2019-04-11T20:57:25.617Z,47.53
2019-04-11T20:59:50.794Z,45.87
2019-04-11T21:02:20.495Z,43.03
2019-04-11T21:04:50.578Z,42.57
2019-04-11T21:07:20.018Z,44.43
2019-04-11T21:09:49.927Z,45.43
2019-04-11T21:12:19.484Z,50.97
2019-04-11T21:14:49.388Z,43.10
2019-04-11T21:17:19.031Z,47.37
2019-04-11T21:19:50.996Z,44.67
2019-04-11T21:22:23.968Z,43.13
2019-04-11T21:24:53.139Z,46.73
2019-04-11T21:27:22.680Z,45.53
2019-04-11T21:29:52.798Z,47.37
2019-04-11T21:32:22.679Z,44.70
2019-04-11T21:34:55.685Z,46.43
2019-04-11T21:37:25.207Z,44.77
2019-04-11T21:39:54.960Z,45.90
2019-04-11T21:42:24.397Z,42.53
2019-04-11T21:44:54.209Z,47.17
2019-04-11T21:47:23.685Z,46.77
2019-04-11T21:49:53.501Z,48.33
2019-04-11T21:52:22.939Z,48.10
2019-04-11T21:54:52.366Z,47.47
2019-04-11T21:57:21.803Z,45.93
2019-04-11T21:59:52.171Z,52.17
2019-04-11T22:02:24.304Z,48.10
2019-04-11T22:04:53.352Z,48.27
2019-04-11T22:07:23.247Z,45.67
2019-04-11T22:09:52.693Z,48.13
2019-04-11T22:12:22.458Z,46.60
2019-04-11T22:14:51.875Z,48.40
2019-04-11T22:17:21.327Z,47.90
2019-04-11T22:19:51.359Z,47.07
2019-04-11T22:22:20.889Z,46.40
2019-04-11T22:24:50.353Z,42.87
2019-04-11T22:27:23.316Z,44.73
2019-04-11T22:29:54.969Z,47.13
2019-04-11T22:32:26.490Z,45.37
2019-04-11T22:34:56.832Z,45.10
2019-04-11T22:37:30.083Z,46.10
2019-04-11T22:40:02.109Z,46.23
2019-04-11T22:42:32.055Z,47.97
2019-04-11T22:45:01.688Z,47.20
2019-04-11T22:47:31.490Z,46.93
2019-04-11T22:50:03.155Z,46.07
2019-04-11T22:52:32.570Z,46.20
2019-04-11T22:55:01.910Z,43.07
2019-04-11T22:57:32.140Z,36.67
2019-04-11T23:00:02.552Z,42.70
2019-04-11T23:02:51.363Z,38.70
2019-04-11T23:05:20.852Z,37.80
2019-04-11T23:07:50.342Z,37.23
2019-04-11T23:10:21.298Z,38.83
2019-04-11T23:12:51.199Z,37.37
2019-04-11T23:15:20.978Z,37.93
2019-04-11T23:17:50.487Z,35.33
2019-04-11T23:20:19.970Z,34.97
2019-04-11T23:22:49.505Z,33.37
2019-04-11T23:25:18.930Z,30.50
2019-04-11T23:27:48.369Z,27.27
2019-04-11T23:30:19.078Z,23.73
2019-04-11T23:32:50.831Z,27.63
2019-04-11T23:35:21.280Z,28.23
2019-04-11T23:37:51.982Z,26.80
2019-04-11T23:40:21.996Z,25.90
2019-04-11T23:42:51.566Z,31.10
2019-04-11T23:45:23.990Z,28.13
2019-04-11T23:47:54.495Z,25.03
2019-04-11T23:50:25.281Z,25.30
2019-04-11T23:52:57.939Z,26.10
2019-04-11T23:55:29.993Z,29.40
2019-04-11T23:58:01.699Z,26.53
